Terminal Aerodrome Forecast
Issued by NWS

Home | Current Version | Previous Version | Text Only | Print | Product List | Glossary On
Versions: 1 2 3 4 5 6 7 8 9 10 11 12 13 14
000
FTUS42 TJSJ 012300 RRA
TAFNCM
TAF
TNCM 012340Z 0200/0224 04013KT P6SM FEW019 BKN050
     FM021300 08015KT P6SM SCT022
     FM022300 10008KT P6SM FEW022=

USA.gov is the U.S. government's official web portal to all federal, state and local government web resources and services.